Time;durP1;ratioP1;P1;durP2;ratioP2;P2;SDS_P1;SDS_P2;PMS_P1;PMS_P2;Temp;Humidity;BMP_temperature;BMP_pressure;BME280_temperature;BME280_humidity;BME280_pressure;Samples;Min_cycle;Max_cycle;Signal;HPM_P1;HPM_P2
2023/07/30 00:00:28;;;;;;;10.40;3.50;;;;;;;15.02;84.52;100878.34;5019622;28;20033;-64
2023/07/30 00:02:53;;;;;;;7.40;2.97;;;;;;;14.99;84.85;100883.28;5013177;28;20030;-65
2023/07/30 00:05:18;;;;;;;9.15;3.47;;;;;;;14.95;84.84;100884.72;5022419;28;20040;-65
2023/07/30 00:07:43;;;;;;;11.02;3.72;;;;;;;14.90;84.86;100882.63;5012872;28;20054;-65
2023/07/30 00:10:09;;;;;;;10.38;3.97;;;;;;;14.87;84.96;100877.69;5013231;28;20105;-65
2023/07/30 00:12:34;;;;;;;10.90;4.10;;;;;;;14.84;85.11;100886.09;5011849;28;20056;-65
2023/07/30 00:14:59;;;;;;;9.52;3.75;;;;;;;14.80;85.26;100880.31;5014989;28;20641;-64
2023/07/30 00:17:25;;;;;;;5.78;3.50;;;;;;;14.77;85.68;100882.56;5015903;28;20028;-65
2023/07/30 00:19:50;;;;;;;9.60;3.72;;;;;;;14.75;85.62;100873.94;5013376;28;20120;-64
2023/07/30 00:22:15;;;;;;;11.20;3.70;;;;;;;14.75;85.67;100881.94;5011520;28;21392;-64
2023/07/30 00:24:40;;;;;;;10.00;3.50;;;;;;;14.74;85.93;100874.91;5014530;28;20053;-64
2023/07/30 00:27:06;;;;;;;10.93;3.70;;;;;;;14.74;85.79;100877.59;5018659;28;20584;-65
2023/07/30 00:29:31;;;;;;;8.77;3.50;;;;;;;14.73;85.92;100886.63;5018355;28;20096;-65
2023/07/30 00:31:56;;;;;;;10.80;3.20;;;;;;;14.72;85.75;100882.31;5018731;28;20029;-64
2023/07/30 00:34:22;;;;;;;12.23;3.83;;;;;;;14.71;86.05;100891.34;5022759;28;20018;-65
2023/07/30 00:36:47;;;;;;;8.80;3.55;;;;;;;14.67;86.18;100890.09;5027396;28;20113;-64
2023/07/30 00:39:12;;;;;;;9.60;3.28;;;;;;;14.64;86.39;100888.66;5021601;28;20049;-64
2023/07/30 00:41:38;;;;;;;9.45;3.22;;;;;;;14.63;86.59;100883.50;5023193;28;20030;-64
2023/07/30 00:44:04;;;;;;;14.65;3.53;;;;;;;14.62;86.53;100885.34;5016805;28;20100;-64
2023/07/30 00:46:30;;;;;;;10.63;3.80;;;;;;;14.58;86.65;100884.09;5018628;28;20109;-65
2023/07/30 00:48:55;;;;;;;16.13;3.92;;;;;;;14.57;86.88;100885.13;5019035;28;20515;-64
2023/07/30 00:51:21;;;;;;;9.35;3.60;;;;;;;14.57;86.84;100887.78;5014192;28;20087;-64
2023/07/30 00:53:46;;;;;;;9.23;3.72;;;;;;;14.56;87.02;100888.81;5019475;28;20410;-65
2023/07/30 00:56:12;;;;;;;12.02;3.42;;;;;;;14.56;87.07;100894.16;5012381;28;20022;-65
2023/07/30 00:58:37;;;;;;;10.68;3.75;;;;;;;14.55;87.26;100890.66;5021849;28;20025;-65
2023/07/30 01:01:02;;;;;;;9.95;3.80;;;;;;;14.55;87.49;100889.81;5022341;28;20060;-65
2023/07/30 01:03:28;;;;;;;10.88;4.03;;;;;;;14.54;87.47;100901.53;5023951;28;20258;-65
2023/07/30 01:05:53;;;;;;;11.27;3.83;;;;;;;14.50;87.69;100903.78;5016725;28;20022;-64
2023/07/30 01:08:19;;;;;;;14.18;4.00;;;;;;;14.48;87.94;100911.16;5015825;28;20030;-65
2023/07/30 01:10:45;;;;;;;9.10;3.80;;;;;;;14.45;87.94;100911.53;5017472;28;20026;-65
2023/07/30 01:13:12;;;;;;;9.23;4.13;;;;;;;14.41;88.31;100914.75;5012375;28;20026;-65
2023/07/30 01:15:37;;;;;;;11.70;3.83;;;;;;;14.37;88.73;100917.00;5022379;28;20585;-65
2023/07/30 01:18:03;;;;;;;13.18;3.92;;;;;;;14.38;88.81;100915.16;5017488;28;20041;-64
2023/07/30 01:20:32;;;;;;;11.50;3.60;;;;;;;14.34;89.14;100917.38;5022176;28;20033;-65
2023/07/30 01:23:00;;;;;;;;;;;;;;;14.36;88.95;100926.03;5018657;28;20112;-64
2023/07/30 01:25:29;;;;;;;10.77;3.67;;;;;;;14.31;89.21;100919.63;5021015;28;20009;-64
2023/07/30 01:27:58;;;;;;;11.85;3.75;;;;;;;14.26;89.46;100918.34;5014080;28;20289;-64
2023/07/30 01:30:29;;;;;;;;;;;;;;;14.26;89.39;100929.03;5016026;28;20476;-65
2023/07/30 01:32:55;;;;;;;9.20;3.55;;;;;;;14.18;89.75;100923.00;5026529;28;19917;-64
2023/07/30 01:35:22;;;;;;;12.05;3.58;;;;;;;14.17;89.86;100924.84;5013613;28;20519;-64
2023/07/30 01:37:48;;;;;;;13.60;3.60;;;;;;;14.16;90.23;100938.38;5020329;28;20027;-64
2023/07/30 01:40:14;;;;;;;15.95;4.20;;;;;;;14.14;90.30;100935.91;5021260;28;20025;-65
2023/07/30 01:42:39;;;;;;;10.90;3.75;;;;;;;14.15;90.81;100934.88;5021710;28;20068;-65
2023/07/30 01:45:05;;;;;;;13.50;4.10;;;;;;;14.17;91.07;100937.38;5020667;28;20052;-65
2023/07/30 01:47:30;;;;;;;10.93;4.18;;;;;;;14.18;91.11;100941.72;5023855;28;20030;-65
2023/07/30 01:49:56;;;;;;;10.25;3.65;;;;;;;14.18;91.02;100947.88;5019036;28;20025;-65
2023/07/30 01:52:21;;;;;;;11.38;4.00;;;;;;;14.16;90.94;100941.03;5020794;28;20029;-65
2023/07/30 01:54:46;;;;;;;11.27;3.78;;;;;;;14.14;91.38;100938.56;5020151;28;20075;-65
2023/07/30 01:57:12;;;;;;;11.35;4.18;;;;;;;14.13;91.54;100950.25;5015231;28;20156;-65
2023/07/30 01:59:38;;;;;;;11.05;4.10;;;;;;;14.09;91.64;100943.66;5012667;28;20415;-65
2023/07/30 02:02:04;;;;;;;14.77;4.07;;;;;;;14.06;91.61;100941.38;5016950;28;20028;-65
2023/07/30 02:04:29;;;;;;;13.75;4.45;;;;;;;14.04;91.88;100948.75;5022512;28;20045;-65
2023/07/30 02:06:54;;;;;;;14.93;4.60;;;;;;;14.02;92.47;100945.44;5014427;28;20033;-65
2023/07/30 02:09:20;;;;;;;15.23;4.32;;;;;;;14.04;92.76;100948.75;5018561;28;20030;-64
2023/07/30 02:11:45;;;;;;;13.60;4.32;;;;;;;14.07;92.92;100937.69;5021279;28;20519;-65
2023/07/30 02:14:11;;;;;;;12.90;4.63;;;;;;;14.10;93.35;100934.63;5014534;28;20093;-65
2023/07/30 02:16:36;;;;;;;13.15;4.65;;;;;;;14.15;93.64;100932.19;5026730;28;20037;-65
2023/07/30 02:19:01;;;;;;;19.52;5.28;;;;;;;14.19;93.64;100933.50;5019581;28;20032;-65
2023/07/30 02:21:27;;;;;;;11.90;4.80;;;;;;;14.22;93.57;100926.94;5009886;28;20053;-66
2023/07/30 02:23:52;;;;;;;19.70;5.47;;;;;;;14.24;93.54;100922.22;5014271;28;20032;-65
2023/07/30 02:26:17;;;;;;;14.38;4.95;;;;;;;14.25;93.67;100923.88;5017855;28;20037;-64
2023/07/30 02:28:43;;;;;;;15.32;4.97;;;;;;;14.27;93.98;100927.19;5022338;28;20036;-65
2023/07/30 02:31:08;;;;;;;18.08;5.60;;;;;;;14.29;94.07;100916.31;5021969;28;20021;-65
2023/07/30 02:33:33;;;;;;;17.67;5.78;;;;;;;14.28;94.11;100920.81;5017489;28;20025;-64
2023/07/30 02:35:59;;;;;;;15.98;5.53;;;;;;;14.29;94.48;100919.81;5020783;28;20208;-65
2023/07/30 02:38:24;;;;;;;16.27;5.70;;;;;;;14.31;94.48;100915.09;5024496;28;20704;-65
2023/07/30 02:40:49;;;;;;;18.33;5.88;;;;;;;14.33;94.60;100925.59;5027509;28;20096;-64
2023/07/30 02:43:14;;;;;;;14.77;5.50;;;;;;;14.33;94.38;100913.06;5024418;28;20029;-65
2023/07/30 02:45:40;;;;;;;17.90;5.68;;;;;;;14.34;94.52;100917.38;5027106;28;20551;-65
2023/07/30 02:48:05;;;;;;;15.32;5.82;;;;;;;14.36;94.60;100919.84;5022236;28;20594;-64
2023/07/30 02:50:30;;;;;;;18.92;6.10;;;;;;;14.34;94.87;100914.72;5017654;28;20033;-65
2023/07/30 02:52:55;;;;;;;19.33;6.30;;;;;;;14.36;94.68;100917.19;5017123;28;20158;-65
2023/07/30 02:55:21;;;;;;;17.60;5.63;;;;;;;14.36;94.47;100914.50;5017793;28;20033;-67
2023/07/30 02:57:46;;;;;;;13.48;5.78;;;;;;;14.36;95.12;100912.66;5010820;28;20427;-65
2023/07/30 03:00:12;;;;;;;20.45;6.10;;;;;;;14.37;95.23;100924.19;5017525;28;20057;-65
2023/07/30 03:02:37;;;;;;;18.38;6.55;;;;;;;14.38;95.52;100923.16;5010715;28;20502;-65
2023/07/30 03:05:03;;;;;;;17.23;6.97;;;;;;;14.38;95.62;100931.16;5017704;28;20025;-65
2023/07/30 03:07:28;;;;;;;19.25;6.30;;;;;;;14.39;95.79;100922.13;5014055;28;20049;-65
2023/07/30 03:09:53;;;;;;;17.33;6.60;;;;;;;14.40;96.04;100924.63;5019730;28;20464;-65
2023/07/30 03:12:19;;;;;;;20.67;6.82;;;;;;;14.41;96.07;100923.59;5013235;28;20037;-65
2023/07/30 03:14:44;;;;;;;19.77;6.93;;;;;;;14.44;96.37;100923.22;5021160;28;20434;-65
2023/07/30 03:17:09;;;;;;;20.90;8.10;;;;;;;14.44;96.86;100931.25;5020384;28;20033;-65
2023/07/30 03:19:34;;;;;;;20.40;7.80;;;;;;;14.46;96.88;100929.25;5008141;28;20048;-65
2023/07/30 03:22:00;;;;;;;18.73;7.55;;;;;;;14.48;96.96;100926.38;5022837;28;20109;-65
2023/07/30 03:24:25;;;;;;;17.60;8.07;;;;;;;14.49;97.02;100922.69;5010727;28;20113;-64
2023/07/30 03:26:50;;;;;;;24.73;7.68;;;;;;;14.50;96.93;100922.47;5015489;28;20053;-65
2023/07/30 03:29:16;;;;;;;21.88;7.07;;;;;;;14.51;97.04;100925.97;5021876;28;20029;-65
2023/07/30 03:31:41;;;;;;;23.85;8.30;;;;;;;14.52;97.30;100920.44;5022726;28;21652;-65
2023/07/30 03:34:06;;;;;;;27.30;8.40;;;;;;;14.54;97.47;100928.25;5018083;28;20549;-65
2023/07/30 03:36:32;;;;;;;19.08;7.57;;;;;;;14.54;97.36;100929.09;5022801;28;20044;-65
2023/07/30 03:38:57;;;;;;;24.58;8.55;;;;;;;14.56;97.45;100932.41;5022649;28;20025;-65
2023/07/30 03:41:23;;;;;;;21.95;7.35;;;;;;;14.56;97.61;100935.06;5018077;28;20483;-65
2023/07/30 03:43:48;;;;;;;21.85;7.88;;;;;;;14.57;97.79;100928.69;5022344;28;20151;-64
2023/07/30 03:46:13;;;;;;;20.20;7.97;;;;;;;14.59;97.82;100935.69;5021985;28;20039;-65
2023/07/30 03:48:38;;;;;;;22.88;7.70;;;;;;;14.58;97.96;100937.53;5020987;28;20545;-65
2023/07/30 03:51:04;;;;;;;23.45;8.20;;;;;;;14.59;98.14;100941.88;5020531;28;20031;-65
2023/07/30 03:53:29;;;;;;;27.27;8.13;;;;;;;14.61;98.38;100939.00;5018845;28;20231;-65
2023/07/30 03:55:54;;;;;;;23.15;7.68;;;;;;;14.62;98.09;100949.50;5019367;28;20021;-65
2023/07/30 03:58:19;;;;;;;23.52;8.38;;;;;;;14.61;98.27;100944.34;5020006;28;20902;-65
2023/07/30 04:00:45;;;;;;;19.58;8.48;;;;;;;14.63;98.51;100947.66;5025331;28;20025;-64
2023/07/30 04:03:10;;;;;;;22.15;8.23;;;;;;;14.65;98.33;100950.94;5019785;28;20049;-64
2023/07/30 04:05:35;;;;;;;26.73;8.57;;;;;;;14.65;98.42;100948.28;5031529;28;20091;-65
2023/07/30 04:08:00;;;;;;;26.95;9.13;;;;;;;14.66;98.54;100947.25;5019608;28;20380;-65
2023/07/30 04:10:26;;;;;;;25.30;9.95;;;;;;;14.65;98.83;100948.28;5022938;28;20086;-65
2023/07/30 04:12:51;;;;;;;29.25;9.43;;;;;;;14.64;98.96;100952.78;5021002;28;20025;-65
2023/07/30 04:15:16;;;;;;;23.92;8.70;;;;;;;14.65;98.81;100943.75;5026391;28;20091;-64
2023/07/30 04:17:42;;;;;;;23.30;8.63;;;;;;;14.65;98.94;100946.44;5027216;28;20411;-65
2023/07/30 04:20:09;;;;;;;19.67;8.27;;;;;;;14.65;98.99;100957.13;5021982;28;20152;-65
2023/07/30 04:22:34;;;;;;;27.67;8.73;;;;;;;14.65;99.15;100953.63;5024695;28;20049;-65
2023/07/30 04:25:00;;;;;;;28.40;8.50;;;;;;;14.65;99.17;100958.97;5023728;28;20049;-64
2023/07/30 04:27:25;;;;;;;27.95;9.35;;;;;;;14.65;99.32;100958.97;5024143;28;20033;-66
2023/07/30 04:29:50;;;;;;;25.83;8.95;;;;;;;14.65;99.12;100964.31;5024930;28;20032;-64
2023/07/30 04:32:15;;;;;;;23.35;8.20;;;;;;;14.65;99.35;100965.13;5025435;28;20056;-65
2023/07/30 04:34:41;;;;;;;24.10;8.50;;;;;;;14.66;99.17;100963.28;5027767;28;20030;-65
2023/07/30 04:37:06;;;;;;;24.73;8.50;;;;;;;14.64;99.40;100968.00;5021337;28;20051;-65
2023/07/30 04:39:32;;;;;;;25.05;8.30;;;;;;;14.65;99.45;100966.97;5020902;28;20052;-65
2023/07/30 04:41:57;;;;;;;20.60;8.02;;;;;;;14.65;99.60;100970.47;5017868;28;20021;-65
2023/07/30 04:44:22;;;;;;;22.80;7.95;;;;;;;14.66;99.61;100960.63;5025617;28;20022;-65
2023/07/30 04:46:48;;;;;;;23.15;7.53;;;;;;;14.66;99.33;100961.44;5019889;28;20060;-64
2023/07/30 04:49:13;;;;;;;26.05;7.72;;;;;;;14.66;99.79;100961.44;5016512;28;20028;-65
2023/07/30 04:51:38;;;;;;;19.50;6.93;;;;;;;14.67;99.84;100956.91;5022780;28;20030;-65
2023/07/30 04:54:04;;;;;;;23.35;8.48;;;;;;;14.70;99.80;100961.88;5020907;28;20159;-65
2023/07/30 04:56:29;;;;;;;24.83;7.43;;;;;;;14.71;99.89;100955.50;5019659;28;20041;-65
2023/07/30 04:58:54;;;;;;;19.40;7.93;;;;;;;14.70;99.82;100961.88;5022173;28;20041;-65
2023/07/30 05:01:19;;;;;;;21.27;7.50;;;;;;;14.70;99.98;100965.38;5021980;28;20033;-65
2023/07/30 05:03:45;;;;;;;24.63;7.18;;;;;;;14.71;99.63;100966.19;5020931;28;20494;-65
2023/07/30 05:06:10;;;;;;;25.75;7.50;;;;;;;14.71;99.83;100968.88;5015513;28;20025;-65
2023/07/30 05:08:35;;;;;;;22.23;7.75;;;;;;;14.75;100.00;100975.50;5012653;28;20083;-65
2023/07/30 05:11:00;;;;;;;23.17;8.63;;;;;;;14.75;99.89;100976.34;5022257;28;20017;-65
2023/07/30 05:13:26;;;;;;;25.23;7.85;;;;;;;14.76;99.96;100982.50;5010235;28;20029;-65
2023/07/30 05:15:51;;;;;;;22.35;8.25;;;;;;;14.77;100.00;100984.16;5021354;28;20410;-65
2023/07/30 05:18:16;;;;;;;26.08;8.10;;;;;;;14.78;100.00;100986.63;5011354;28;20100;-65
2023/07/30 05:20:41;;;;;;;21.88;8.13;;;;;;;14.81;100.00;100985.44;5022590;28;20600;-65
2023/07/30 05:23:07;;;;;;;26.50;8.55;;;;;;;14.80;100.00;100984.59;5020833;28;20108;-65
2023/07/30 05:25:32;;;;;;;23.45;8.57;;;;;;;14.80;100.00;100989.94;5016046;28;20067;-65
2023/07/30 05:27:58;;;;;;;25.48;9.65;;;;;;;14.84;100.00;100995.72;5022332;28;20025;-65
2023/07/30 05:30:23;;;;;;;26.83;9.32;;;;;;;14.85;100.00;100987.50;5025532;28;20387;-65
2023/07/30 05:32:48;;;;;;;25.05;10.13;;;;;;;14.89;100.00;100993.28;5019383;28;20113;-65
2023/07/30 05:35:14;;;;;;;31.50;10.20;;;;;;;14.91;100.00;100991.25;5024497;28;20056;-65
2023/07/30 05:37:39;;;;;;;33.25;10.85;;;;;;;14.93;100.00;100986.53;5021074;28;20082;-65
2023/07/30 05:40:06;;;;;;;28.77;10.85;;;;;;;14.93;100.00;100978.50;5026580;28;20063;-65
2023/07/30 05:42:31;;;;;;;27.73;11.32;;;;;;;14.93;100.00;100980.34;5024828;28;20028;-65
2023/07/30 05:44:56;;;;;;;32.80;12.15;;;;;;;15.01;100.00;100991.72;5028106;28;20025;-65
2023/07/30 05:47:22;;;;;;;35.53;11.40;;;;;;;15.00;100.00;100982.03;5022973;28;20025;-65
2023/07/30 05:49:47;;;;;;;33.17;11.43;;;;;;;15.01;100.00;100983.69;5024082;28;20030;-65
2023/07/30 05:52:13;;;;;;;30.35;12.18;;;;;;;15.01;100.00;100986.38;5021301;28;20079;-65
2023/07/30 05:54:38;;;;;;;31.75;12.10;;;;;;;15.01;100.00;100974.84;5023876;28;20144;-65
2023/07/30 05:57:04;;;;;;;26.13;11.85;;;;;;;15.05;100.00;100979.63;5020313;28;20666;-65
2023/07/30 05:59:29;;;;;;;32.45;12.73;;;;;;;15.09;100.00;100990.75;5020959;28;20033;-65
2023/07/30 06:01:56;;;;;;;28.75;11.90;;;;;;;15.10;100.00;100990.56;5022493;28;20022;-65
2023/07/30 06:04:21;;;;;;;33.75;11.98;;;;;;;15.11;100.00;100992.22;5026748;28;20025;-65
2023/07/30 06:06:46;;;;;;;26.05;11.55;;;;;;;15.15;100.00;100992.63;5016652;28;20568;-65
2023/07/30 06:09:12;;;;;;;28.75;11.70;;;;;;;15.16;100.00;100994.28;5027661;28;20025;-65
2023/07/30 06:11:37;;;;;;;33.15;12.20;;;;;;;15.18;100.00;100995.75;5021893;28;20018;-65
2023/07/30 06:14:02;;;;;;;32.25;11.45;;;;;;;15.21;100.00;100991.03;5023794;28;20040;-65
2023/07/30 06:16:28;;;;;;;32.40;11.85;;;;;;;15.22;100.00;100995.34;5025601;28;20451;-65
2023/07/30 06:18:53;;;;;;;26.50;11.52;;;;;;;15.25;100.00;100997.63;5032328;28;20022;-65
2023/07/30 06:21:18;;;;;;;31.20;11.50;;;;;;;15.25;100.00;100995.78;5024106;28;20059;-64
2023/07/30 06:23:43;;;;;;;29.42;11.65;;;;;;;15.27;100.00;100995.56;5014762;28;20034;-65
2023/07/30 06:26:09;;;;;;;35.08;11.73;;;;;;;15.25;100.00;100990.41;5012983;28;20036;-64
2023/07/30 06:28:34;;;;;;;27.85;11.25;;;;;;;15.29;100.00;100986.31;5025314;28;20025;-65
2023/07/30 06:31:03;;;;;;;30.50;11.02;;;;;;;15.29;100.00;100994.34;5022740;28;20438;-65
2023/07/30 06:33:28;;;;;;;34.88;11.32;;;;;;;15.32;100.00;100993.94;5019508;28;20029;-65
2023/07/30 06:35:53;;;;;;;32.72;11.00;;;;;;;15.33;100.00;100995.63;5017631;28;20040;-65
2023/07/30 06:38:19;;;;;;;33.97;10.90;;;;;;;15.35;100.00;100995.44;5018027;28;20221;-65
2023/07/30 06:40:44;;;;;;;28.00;10.50;;;;;;;15.38;100.00;100995.03;5027218;28;20030;-65
2023/07/30 06:43:09;;;;;;;29.98;10.40;;;;;;;15.40;100.00;100985.78;5021823;28;20371;-65
2023/07/30 06:45:34;;;;;;;40.53;11.32;;;;;;;15.45;100.00;100987.84;5024039;28;20025;-65
2023/07/30 06:48:00;;;;;;;30.10;9.82;;;;;;;15.47;100.00;100997.34;5009929;28;20088;-65
2023/07/30 06:50:25;;;;;;;29.40;9.98;;;;;;;15.50;100.00;100985.41;5027493;28;20475;-65
2023/07/30 06:52:50;;;;;;;30.27;9.93;;;;;;;15.53;100.00;100993.03;5026504;28;20017;-64
2023/07/30 06:55:15;;;;;;;32.33;9.55;;;;;;;15.56;100.00;100989.13;5023083;28;20124;-65
2023/07/30 06:57:41;;;;;;;33.88;10.25;;;;;;;15.59;99.90;100997.63;5019917;28;20534;-65
2023/07/30 07:00:07;;;;;;;30.55;9.25;;;;;;;15.63;99.72;100996.22;5018234;28;20113;-65
2023/07/30 07:02:32;;;;;;;26.08;9.32;;;;;;;15.68;99.96;101000.97;5025475;28;20092;-65
2023/07/30 07:04:58;;;;;;;33.15;9.55;;;;;;;15.75;99.99;101007.16;5024034;28;20113;-65
2023/07/30 07:07:23;;;;;;;27.98;8.85;;;;;;;15.79;99.85;101009.25;5024219;28;20038;-65
2023/07/30 07:09:48;;;;;;;28.83;8.45;;;;;;;15.80;98.83;101008.22;5031354;28;20498;-65
2023/07/30 07:12:13;;;;;;;32.58;8.85;;;;;;;15.86;99.06;101011.94;5018458;28;20100;-65
2023/07/30 07:14:39;;;;;;;33.35;8.23;;;;;;;15.91;99.04;101006.81;5020548;28;20033;-66
2023/07/30 07:17:04;;;;;;;32.97;8.18;;;;;;;15.97;98.94;101011.38;5026928;28;20021;-65
2023/07/30 07:19:30;;;;;;;31.70;7.95;;;;;;;16.03;98.43;101007.88;5019686;28;20079;-64
2023/07/30 07:21:55;;;;;;;25.13;8.07;;;;;;;16.03;97.81;101002.53;5016761;28;20080;-65
2023/07/30 07:24:20;;;;;;;23.80;7.82;;;;;;;16.03;97.62;100999.03;5022953;28;20028;-65
2023/07/30 07:26:46;;;;;;;35.08;8.63;;;;;;;16.05;97.35;101002.31;5022004;28;20021;-65
2023/07/30 07:29:11;;;;;;;28.70;8.43;;;;;;;16.08;97.33;101004.59;5016969;28;20028;-65
2023/07/30 07:31:36;;;;;;;25.63;8.43;;;;;;;16.15;97.31;101002.75;5021469;28;20033;-65
2023/07/30 07:34:01;;;;;;;26.63;8.45;;;;;;;16.22;96.61;101006.28;5020866;28;20033;-65
2023/07/30 07:36:27;;;;;;;29.77;8.13;;;;;;;16.24;96.04;101009.59;5023699;28;20013;-65
2023/07/30 07:38:52;;;;;;;23.08;7.15;;;;;;;16.25;95.92;101003.19;5021142;28;20052;-65
2023/07/30 07:41:17;;;;;;;26.17;7.68;;;;;;;16.24;95.72;101011.44;5021329;28;20018;-65
2023/07/30 07:43:44;;;;;;;19.40;6.95;;;;;;;16.29;95.65;101028.56;5029833;28;20033;-65
2023/07/30 07:46:13;;;;;;;24.63;6.82;;;;;;;16.31;95.21;101033.72;5025851;28;20037;-65
2023/07/30 07:48:40;;;;;;;27.55;6.70;;;;;;;16.35;95.18;101035.78;5019371;28;20080;-65
2023/07/30 07:51:05;;;;;;;23.77;5.72;;;;;;;16.35;95.04;101032.28;5020080;28;20276;-65
2023/07/30 07:53:30;;;;;;;20.92;6.55;;;;;;;16.35;94.46;101025.06;5026350;28;20471;-65
2023/07/30 07:55:56;;;;;;;24.48;6.22;;;;;;;16.36;94.17;101018.66;5027105;28;20037;-65
2023/07/30 07:58:21;;;;;;;18.75;5.80;;;;;;;16.35;93.71;101022.38;5020011;28;20018;-65
2023/07/30 08:00:47;;;;;;;23.42;6.32;;;;;;;16.36;93.77;101025.88;5012394;28;20058;-64
2023/07/30 08:03:12;;;;;;;21.13;6.18;;;;;;;16.39;93.66;101012.06;5019465;28;20091;-65
2023/07/30 08:05:37;;;;;;;21.55;6.53;;;;;;;16.41;93.58;101031.44;5026759;28;20033;-65
2023/07/30 08:08:02;;;;;;;30.15;6.53;;;;;;;16.39;93.31;101020.09;5023540;28;20521;-66
2023/07/30 08:10:28;;;;;;;20.30;5.63;;;;;;;16.52;93.57;101030.03;5023987;28;20018;-65
2023/07/30 08:12:53;;;;;;;24.05;5.40;;;;;;;16.52;93.87;101038.06;5027136;28;20518;-65
2023/07/30 08:15:18;;;;;;;23.30;5.38;;;;;;;16.52;93.55;101038.06;5026861;28;20029;-65
2023/07/30 08:17:43;;;;;;;18.95;5.13;;;;;;;16.54;92.78;101049.44;5027498;28;20025;-64
2023/07/30 08:20:09;;;;;;;27.17;5.25;;;;;;;16.60;92.38;101044.06;5020894;28;20021;-65
2023/07/30 08:22:34;;;;;;;22.00;5.53;;;;;;;16.64;92.04;101047.97;5024016;28;20021;-65
2023/07/30 08:25:02;;;;;;;24.13;5.38;;;;;;;16.73;91.33;101045.94;5025586;28;20107;-65
2023/07/30 08:27:27;;;;;;;24.08;5.53;;;;;;;16.82;91.86;101049.25;5021853;28;20113;-65
2023/07/30 08:29:52;;;;;;;17.58;5.35;;;;;;;16.80;90.44;101052.16;5015868;28;20448;-65
2023/07/30 08:32:18;;;;;;;23.70;5.63;;;;;;;16.77;89.99;101049.03;5013203;28;20018;-65
2023/07/30 08:34:43;;;;;;;22.63;5.68;;;;;;;16.71;89.87;101037.28;5025341;28;20018;-66
2023/07/30 08:37:08;;;;;;;22.77;6.10;;;;;;;16.52;90.35;101033.53;5016422;28;20594;-65
2023/07/30 08:39:34;;;;;;;24.67;6.35;;;;;;;16.42;91.06;101031.25;5021966;28;20025;-65
2023/07/30 08:41:59;;;;;;;23.75;6.65;;;;;;;16.38;92.02;101038.03;5023089;28;20057;-65
2023/07/30 08:44:25;;;;;;;26.92;6.47;;;;;;;16.36;93.00;101044.63;5030818;28;21155;-65
2023/07/30 08:46:50;;;;;;;23.55;7.38;;;;;;;16.36;93.67;101039.28;5023630;28;20026;-65
2023/07/30 08:49:16;;;;;;;26.63;6.45;;;;;;;16.43;94.30;101050.84;5025485;28;20438;-65
2023/07/30 08:51:42;;;;;;;25.70;6.82;;;;;;;16.55;95.25;101048.38;5023852;28;20483;-65
2023/07/30 08:54:09;;;;;;;24.90;6.22;;;;;;;16.65;95.25;101048.81;5020680;28;20083;-64
2023/07/30 08:56:34;;;;;;;25.80;6.18;;;;;;;16.72;94.75;101041.63;5022876;28;20049;-65
2023/07/30 08:59:02;;;;;;;22.17;5.25;;;;;;;16.76;93.89;101045.53;5021481;28;20419;-65
2023/07/30 09:01:32;;;;;;;22.25;5.50;;;;;;;16.80;93.18;101052.16;5023257;28;20053;-65
2023/07/30 09:04:00;;;;;;;18.35;5.05;;;;;;;16.86;92.54;101054.00;5029025;28;20056;-65
2023/07/30 09:06:25;;;;;;;20.70;5.88;;;;;;;16.97;92.80;101057.91;5017440;28;20025;-65
2023/07/30 09:08:50;;;;;;;18.02;4.90;;;;;;;17.04;92.04;101051.50;5011646;28;20025;-65
2023/07/30 09:11:16;;;;;;;18.40;4.32;;;;;;;17.08;90.70;101051.94;5024118;28;20013;-65
2023/07/30 09:13:41;;;;;;;15.80;4.65;;;;;;;17.22;90.23;101050.88;5023044;28;20758;-65
2023/07/30 09:16:14;;;;;;;14.85;4.35;;;;;;;17.39;89.49;101062.00;5020036;28;20021;-65
2023/07/30 09:18:45;;;;;;;19.10;4.38;;;;;;;17.58;89.75;101052.22;5017173;28;20057;-66
2023/07/30 09:21:12;;;;;;;17.90;4.25;;;;;;;17.71;88.32;101043.34;5029004;28;20034;-65
2023/07/30 09:23:45;;;;;;;16.70;4.57;;;;;;;17.75;87.12;101041.88;5025531;28;20033;-65
2023/07/30 09:26:11;;;;;;;16.02;4.30;;;;;;;17.78;87.13;101044.97;5029678;28;20040;-65
2023/07/30 09:28:36;;;;;;;18.75;4.50;;;;;;;17.71;85.21;101037.97;5025446;28;20021;-65
2023/07/30 09:31:06;;;;;;;17.30;4.55;;;;;;;17.68;84.77;101033.03;5016295;28;20099;-65
2023/07/30 09:33:32;;;;;;;20.88;4.85;;;;;;;17.74;85.46;101037.56;5026769;28;20037;-65
2023/07/30 09:35:58;;;;;;;20.75;4.65;;;;;;;17.78;85.62;101030.72;5020831;28;20028;-66
2023/07/30 09:38:23;;;;;;;14.00;3.95;;;;;;;17.77;85.29;101037.13;5018485;28;20025;-65
2023/07/30 09:40:49;;;;;;;12.75;3.97;;;;;;;17.72;84.04;101045.00;5023430;28;20026;-65
2023/07/30 09:43:15;;;;;;;15.05;3.95;;;;;;;17.71;83.74;101035.28;5032144;28;20027;-65
2023/07/30 09:45:43;;;;;;;17.10;3.88;;;;;;;17.65;82.75;101035.09;5027918;28;20025;-65
2023/07/30 09:48:08;;;;;;;13.93;3.83;;;;;;;17.56;81.81;101047.06;5027456;28;20544;-65
2023/07/30 09:50:34;;;;;;;19.65;4.55;;;;;;;17.54;82.20;101065.25;5021977;28;20017;-66
2023/07/30 09:53:01;;;;;;;16.92;4.07;;;;;;;17.41;83.03;101070.69;5026615;28;20029;-66
2023/07/30 09:55:27;;;;;;;16.92;4.78;;;;;;;17.25;84.23;101081.84;5022075;28;20996;-65
2023/07/30 09:57:52;;;;;;;17.83;3.60;;;;;;;17.02;85.63;101101.03;5026426;28;20475;-65
2023/07/30 10:00:17;;;;;;;9.25;2.95;;;;;;;16.62;86.78;101110.88;5020887;28;20119;-65
2023/07/30 10:02:46;;;;;;;9.45;2.72;;;;;;;16.29;88.00;101097.41;5018977;28;20017;-65
2023/07/30 10:05:19;;;;;;;9.10;2.88;;;;;;;15.86;89.55;101089.59;5021439;28;20034;-64
2023/07/30 10:07:51;;;;;;;8.30;2.72;;;;;;;15.64;91.60;101074.69;5020012;28;20026;-65
2023/07/30 10:10:18;;;;;;;6.63;2.80;;;;;;;15.58;93.45;101091.47;5026312;28;20029;-65
2023/07/30 10:12:44;;;;;;;11.10;3.42;;;;;;;15.63;95.29;101084.56;5022167;28;20043;-65
2023/07/30 10:15:09;;;;;;;7.97;2.67;;;;;;;15.72;95.54;101101.28;5025043;28;20025;-65
2023/07/30 10:17:35;;;;;;;9.23;3.13;;;;;;;15.76;94.85;101106.03;5027055;28;20075;-65
2023/07/30 10:20:23;;;;;;;9.80;2.65;;;;;;;15.73;94.07;101098.41;5028462;28;20017;-64
2023/07/30 10:22:53;;;;;;;10.48;2.40;;;;;;;15.71;93.37;101105.81;5025660;28;20539;-64
2023/07/30 10:25:30;;;;;;;5.85;1.95;;;;;;;15.69;93.32;101129.28;5019505;28;20060;-65
2023/07/30 10:27:56;;;;;;;7.95;2.70;;;;;;;15.64;92.63;101120.19;5024656;28;20085;-65
2023/07/30 10:30:21;;;;;;;9.25;2.45;;;;;;;15.68;92.23;101118.78;5016446;28;20018;-65
2023/07/30 10:32:57;;;;;;;8.18;2.20;;;;;;;15.71;92.12;101116.53;5027969;28;20183;-65
2023/07/30 10:35:48;;;;;;;11.40;2.70;;;;;;;15.72;92.25;101122.72;5011677;28;20025;-65
2023/07/30 10:38:30;;;;;;;9.48;2.75;;;;;;;15.82;92.94;101123.16;5018246;28;20418;-65
2023/07/30 10:41:10;;;;;;;10.63;2.90;;;;;;;15.98;93.80;101114.00;5028427;28;20025;-65
2023/07/30 10:43:36;;;;;;;11.88;3.53;;;;;;;16.39;95.04;101116.59;5031111;28;20032;-65
2023/07/30 10:46:02;;;;;;;14.20;3.35;;;;;;;16.67;95.94;101124.53;5027435;28;20025;-66
2023/07/30 10:48:35;;;;;;;11.77;3.00;;;;;;;16.73;94.75;101124.53;5020947;28;20068;-65
2023/07/30 10:51:02;;;;;;;11.13;3.40;;;;;;;16.87;93.54;101120.03;5013915;28;20116;-64
2023/07/30 10:53:28;;;;;;;11.18;3.15;;;;;;;16.91;92.47;101123.97;5019949;28;20645;-65
2023/07/30 10:55:54;;;;;;;11.63;3.42;;;;;;;17.01;92.49;101120.84;5022522;28;20049;-65
2023/07/30 10:58:20;;;;;;;12.63;3.53;;;;;;;17.22;93.32;101127.88;5008139;28;20029;-65
2023/07/30 11:00:45;;;;;;;12.00;3.33;;;;;;;17.45;92.83;101122.91;5016563;28;20040;-65
2023/07/30 11:03:11;;;;;;;10.18;3.00;;;;;;;17.80;91.55;101119.97;5010420;28;20503;-65
2023/07/30 11:05:39;;;;;;;14.50;3.40;;;;;;;18.16;91.53;101117.56;5022189;28;20033;-65
2023/07/30 11:08:04;;;;;;;12.55;2.42;;;;;;;18.45;88.33;101109.97;5017267;28;20026;-65
2023/07/30 11:10:29;;;;;;;10.27;2.90;;;;;;;18.66;87.72;101125.00;5018667;28;20029;-65